sensor_id;sensor_type;location;lat;lon;timestamp;P1;durP1;ratioP1;P2;durP2;ratioP2
13566;SDS011;6855;48.112;11.298;2022-08-19T00:01:16;12.40;;;7.80;;
13566;SDS011;6855;48.112;11.298;2022-08-19T00:03:44;10.07;;;8.90;;
13566;SDS011;6855;48.112;11.298;2022-08-19T00:06:11;10.90;;;8.73;;
13566;SDS011;6855;48.112;11.298;2022-08-19T00:08:38;11.97;;;8.40;;
13566;SDS011;6855;48.112;11.298;2022-08-19T00:11:05;11.73;;;8.47;;
13566;SDS011;6855;48.112;11.298;2022-08-19T00:13:34;10.37;;;8.43;;
13566;SDS011;6855;48.112;11.298;2022-08-19T00:16:01;9.60;;;8.57;;
13566;SDS011;6855;48.112;11.298;2022-08-19T00:18:29;12.27;;;7.80;;
13566;SDS011;6855;48.112;11.298;2022-08-19T00:20:56;11.73;;;8.60;;
13566;SDS011;6855;48.112;11.298;2022-08-19T00:23:24;10.40;;;7.87;;
13566;SDS011;6855;48.112;11.298;2022-08-19T00:25:52;9.80;;;8.20;;
13566;SDS011;6855;48.112;11.298;2022-08-19T00:28:19;11.67;;;8.13;;
13566;SDS011;6855;48.112;11.298;2022-08-19T00:30:48;9.17;;;7.93;;
13566;SDS011;6855;48.112;11.298;2022-08-19T00:33:16;11.37;;;8.30;;
13566;SDS011;6855;48.112;11.298;2022-08-19T00:35:44;13.40;;;8.93;;
13566;SDS011;6855;48.112;11.298;2022-08-19T00:38:11;10.97;;;9.07;;
13566;SDS011;6855;48.112;11.298;2022-08-19T00:40:38;10.13;;;8.60;;
13566;SDS011;6855;48.112;11.298;2022-08-19T00:43:07;9.67;;;8.23;;
13566;SDS011;6855;48.112;11.298;2022-08-19T00:45:35;10.87;;;9.40;;
13566;SDS011;6855;48.112;11.298;2022-08-19T00:48:04;11.80;;;9.07;;
13566;SDS011;6855;48.112;11.298;2022-08-19T00:50:31;11.77;;;8.97;;
13566;SDS011;6855;48.112;11.298;2022-08-19T00:52:59;11.60;;;9.73;;
13566;SDS011;6855;48.112;11.298;2022-08-19T00:55:29;9.87;;;8.47;;
13566;SDS011;6855;48.112;11.298;2022-08-19T00:57:58;10.73;;;8.50;;
13566;SDS011;6855;48.112;11.298;2022-08-19T01:00:26;10.07;;;8.70;;
13566;SDS011;6855;48.112;11.298;2022-08-19T01:02:54;10.83;;;9.37;;
13566;SDS011;6855;48.112;11.298;2022-08-19T01:05:24;10.37;;;8.30;;
13566;SDS011;6855;48.112;11.298;2022-08-19T01:07:53;15.60;;;9.37;;
13566;SDS011;6855;48.112;11.298;2022-08-19T01:10:21;11.17;;;8.70;;
13566;SDS011;6855;48.112;11.298;2022-08-19T01:12:50;10.80;;;8.80;;
13566;SDS011;6855;48.112;11.298;2022-08-19T01:15:19;16.03;;;9.23;;
13566;SDS011;6855;48.112;11.298;2022-08-19T01:17:46;11.43;;;9.23;;
13566;SDS011;6855;48.112;11.298;2022-08-19T01:20:16;11.63;;;10.10;;
13566;SDS011;6855;48.112;11.298;2022-08-19T01:22:46;10.57;;;8.93;;
13566;SDS011;6855;48.112;11.298;2022-08-19T01:25:13;11.57;;;8.10;;
13566;SDS011;6855;48.112;11.298;2022-08-19T01:27:42;14.07;;;10.10;;
13566;SDS011;6855;48.112;11.298;2022-08-19T01:30:11;10.40;;;8.60;;
13566;SDS011;6855;48.112;11.298;2022-08-19T01:32:38;10.63;;;9.27;;
13566;SDS011;6855;48.112;11.298;2022-08-19T01:35:06;11.13;;;9.13;;
13566;SDS011;6855;48.112;11.298;2022-08-19T01:37:41;10.67;;;9.53;;
13566;SDS011;6855;48.112;11.298;2022-08-19T01:40:10;10.27;;;9.20;;
13566;SDS011;6855;48.112;11.298;2022-08-19T01:42:38;10.50;;;9.07;;
13566;SDS011;6855;48.112;11.298;2022-08-19T01:45:06;10.53;;;8.57;;
13566;SDS011;6855;48.112;11.298;2022-08-19T01:47:34;12.57;;;8.77;;
13566;SDS011;6855;48.112;11.298;2022-08-19T01:50:03;11.57;;;8.87;;
13566;SDS011;6855;48.112;11.298;2022-08-19T01:52:30;15.80;;;8.50;;
13566;SDS011;6855;48.112;11.298;2022-08-19T01:54:57;10.07;;;7.70;;
13566;SDS011;6855;48.112;11.298;2022-08-19T01:57:26;8.63;;;7.20;;
13566;SDS011;6855;48.112;11.298;2022-08-19T01:59:54;9.37;;;7.80;;
13566;SDS011;6855;48.112;11.298;2022-08-19T02:02:21;8.73;;;6.70;;
13566;SDS011;6855;48.112;11.298;2022-08-19T02:04:49;8.23;;;6.87;;
13566;SDS011;6855;48.112;11.298;2022-08-19T02:07:18;8.03;;;7.23;;
13566;SDS011;6855;48.112;11.298;2022-08-19T02:09:45;8.30;;;7.30;;
13566;SDS011;6855;48.112;11.298;2022-08-19T02:12:13;7.33;;;6.60;;
13566;SDS011;6855;48.112;11.298;2022-08-19T02:14:42;8.13;;;6.77;;
13566;SDS011;6855;48.112;11.298;2022-08-19T02:17:09;7.00;;;6.30;;
13566;SDS011;6855;48.112;11.298;2022-08-19T02:19:37;9.90;;;7.50;;
13566;SDS011;6855;48.112;11.298;2022-08-19T02:22:04;8.17;;;6.73;;
13566;SDS011;6855;48.112;11.298;2022-08-19T02:24:31;7.60;;;6.63;;
13566;SDS011;6855;48.112;11.298;2022-08-19T02:26:59;7.10;;;6.40;;
13566;SDS011;6855;48.112;11.298;2022-08-19T02:29:26;9.43;;;6.37;;
13566;SDS011;6855;48.112;11.298;2022-08-19T02:31:55;7.50;;;6.67;;
13566;SDS011;6855;48.112;11.298;2022-08-19T02:34:22;7.83;;;6.87;;
13566;SDS011;6855;48.112;11.298;2022-08-19T02:36:49;8.13;;;6.97;;
13566;SDS011;6855;48.112;11.298;2022-08-19T02:39:17;9.23;;;6.80;;
13566;SDS011;6855;48.112;11.298;2022-08-19T02:41:43;8.07;;;6.37;;
13566;SDS011;6855;48.112;11.298;2022-08-19T02:44:10;7.60;;;6.57;;
13566;SDS011;6855;48.112;11.298;2022-08-19T02:46:38;6.60;;;5.67;;
13566;SDS011;6855;48.112;11.298;2022-08-19T02:49:07;8.13;;;6.63;;
13566;SDS011;6855;48.112;11.298;2022-08-19T02:51:35;9.17;;;6.13;;
13566;SDS011;6855;48.112;11.298;2022-08-19T02:54:04;7.07;;;5.67;;
13566;SDS011;6855;48.112;11.298;2022-08-19T02:56:33;6.97;;;5.83;;
13566;SDS011;6855;48.112;11.298;2022-08-19T02:59:00;9.53;;;6.47;;
13566;SDS011;6855;48.112;11.298;2022-08-19T03:01:28;7.07;;;6.37;;
13566;SDS011;6855;48.112;11.298;2022-08-19T03:03:56;11.93;;;6.30;;
13566;SDS011;6855;48.112;11.298;2022-08-19T03:06:25;12.53;;;6.07;;
13566;SDS011;6855;48.112;11.298;2022-08-19T03:08:53;7.83;;;6.10;;
13566;SDS011;6855;48.112;11.298;2022-08-19T03:11:21;7.73;;;6.13;;
13566;SDS011;6855;48.112;11.298;2022-08-19T03:13:49;9.13;;;6.83;;
13566;SDS011;6855;48.112;11.298;2022-08-19T03:16:17;9.90;;;6.57;;
13566;SDS011;6855;48.112;11.298;2022-08-19T03:18:44;7.17;;;6.27;;
13566;SDS011;6855;48.112;11.298;2022-08-19T03:21:14;7.70;;;6.30;;
13566;SDS011;6855;48.112;11.298;2022-08-19T03:23:43;8.03;;;6.50;;
13566;SDS011;6855;48.112;11.298;2022-08-19T03:26:10;9.33;;;6.67;;
13566;SDS011;6855;48.112;11.298;2022-08-19T03:28:37;7.07;;;6.10;;
13566;SDS011;6855;48.112;11.298;2022-08-19T03:31:05;6.70;;;6.07;;
13566;SDS011;6855;48.112;11.298;2022-08-19T03:33:34;10.00;;;6.80;;
13566;SDS011;6855;48.112;11.298;2022-08-19T03:36:03;7.10;;;6.10;;
13566;SDS011;6855;48.112;11.298;2022-08-19T03:38:32;7.03;;;6.10;;
13566;SDS011;6855;48.112;11.298;2022-08-19T03:41:03;9.27;;;6.27;;
13566;SDS011;6855;48.112;11.298;2022-08-19T03:43:31;9.70;;;6.80;;
13566;SDS011;6855;48.112;11.298;2022-08-19T03:46:00;9.97;;;7.00;;
13566;SDS011;6855;48.112;11.298;2022-08-19T03:48:29;9.63;;;6.77;;
13566;SDS011;6855;48.112;11.298;2022-08-19T03:50:57;9.53;;;7.90;;
13566;SDS011;6855;48.112;11.298;2022-08-19T03:53:25;9.77;;;7.33;;
13566;SDS011;6855;48.112;11.298;2022-08-19T03:55:52;11.23;;;6.80;;
13566;SDS011;6855;48.112;11.298;2022-08-19T03:58:21;13.60;;;8.17;;
13566;SDS011;6855;48.112;11.298;2022-08-19T04:00:48;11.70;;;7.70;;
13566;SDS011;6855;48.112;11.298;2022-08-19T04:03:16;8.70;;;7.07;;
13566;SDS011;6855;48.112;11.298;2022-08-19T04:05:44;11.20;;;7.97;;
13566;SDS011;6855;48.112;11.298;2022-08-19T04:08:12;10.13;;;7.33;;
13566;SDS011;6855;48.112;11.298;2022-08-19T04:10:45;10.37;;;7.70;;
13566;SDS011;6855;48.112;11.298;2022-08-19T04:13:12;13.80;;;7.90;;
13566;SDS011;6855;48.112;11.298;2022-08-19T04:15:41;11.83;;;8.00;;
13566;SDS011;6855;48.112;11.298;2022-08-19T04:18:09;14.17;;;8.20;;
13566;SDS011;6855;48.112;11.298;2022-08-19T04:20:40;11.30;;;8.20;;
13566;SDS011;6855;48.112;11.298;2022-08-19T04:23:07;12.10;;;7.93;;
13566;SDS011;6855;48.112;11.298;2022-08-19T04:25:36;10.57;;;8.10;;
13566;SDS011;6855;48.112;11.298;2022-08-19T04:28:03;11.03;;;8.60;;
13566;SDS011;6855;48.112;11.298;2022-08-19T04:30:31;10.20;;;8.20;;
13566;SDS011;6855;48.112;11.298;2022-08-19T04:33:05;10.97;;;8.67;;
13566;SDS011;6855;48.112;11.298;2022-08-19T04:35:36;11.40;;;8.47;;
13566;SDS011;6855;48.112;11.298;2022-08-19T04:38:04;13.23;;;8.63;;
13566;SDS011;6855;48.112;11.298;2022-08-19T04:40:31;9.07;;;8.13;;
13566;SDS011;6855;48.112;11.298;2022-08-19T04:43:16;10.83;;;8.90;;
13566;SDS011;6855;48.112;11.298;2022-08-19T04:45:43;12.33;;;8.70;;
13566;SDS011;6855;48.112;11.298;2022-08-19T04:48:12;12.87;;;9.30;;
13566;SDS011;6855;48.112;11.298;2022-08-19T04:50:40;13.67;;;9.50;;
13566;SDS011;6855;48.112;11.298;2022-08-19T04:53:07;17.73;;;9.87;;
13566;SDS011;6855;48.112;11.298;2022-08-19T04:55:37;12.00;;;9.83;;
13566;SDS011;6855;48.112;11.298;2022-08-19T04:58:04;13.30;;;9.93;;
13566;SDS011;6855;48.112;11.298;2022-08-19T05:00:32;10.80;;;8.90;;
13566;SDS011;6855;48.112;11.298;2022-08-19T05:02:59;13.27;;;10.13;;
13566;SDS011;6855;48.112;11.298;2022-08-19T05:05:28;12.80;;;11.17;;
13566;SDS011;6855;48.112;11.298;2022-08-19T05:07:56;13.33;;;9.77;;
13566;SDS011;6855;48.112;11.298;2022-08-19T05:10:23;12.40;;;8.97;;
13566;SDS011;6855;48.112;11.298;2022-08-19T05:12:51;13.37;;;9.87;;
13566;SDS011;6855;48.112;11.298;2022-08-19T05:15:18;12.47;;;10.73;;
13566;SDS011;6855;48.112;11.298;2022-08-19T05:17:45;13.83;;;10.27;;
13566;SDS011;6855;48.112;11.298;2022-08-19T05:20:26;12.60;;;9.03;;
13566;SDS011;6855;48.112;11.298;2022-08-19T05:23:12;12.67;;;9.23;;
13566;SDS011;6855;48.112;11.298;2022-08-19T05:25:40;13.43;;;10.30;;
13566;SDS011;6855;48.112;11.298;2022-08-19T05:28:08;10.97;;;8.57;;
13566;SDS011;6855;48.112;11.298;2022-08-19T05:30:35;12.80;;;9.73;;
13566;SDS011;6855;48.112;11.298;2022-08-19T05:33:02;18.00;;;9.83;;
13566;SDS011;6855;48.112;11.298;2022-08-19T05:35:30;12.23;;;10.57;;
13566;SDS011;6855;48.112;11.298;2022-08-19T05:37:57;12.23;;;8.93;;
13566;SDS011;6855;48.112;11.298;2022-08-19T05:40:25;12.87;;;9.90;;
13566;SDS011;6855;48.112;11.298;2022-08-19T05:42:53;19.33;;;11.30;;
13566;SDS011;6855;48.112;11.298;2022-08-19T05:45:21;17.43;;;10.73;;
13566;SDS011;6855;48.112;11.298;2022-08-19T05:47:48;14.13;;;10.33;;
13566;SDS011;6855;48.112;11.298;2022-08-19T05:50:15;14.90;;;10.30;;
13566;SDS011;6855;48.112;11.298;2022-08-19T05:52:42;14.83;;;10.60;;
13566;SDS011;6855;48.112;11.298;2022-08-19T05:55:10;19.70;;;11.00;;
13566;SDS011;6855;48.112;11.298;2022-08-19T05:57:38;13.83;;;11.60;;
13566;SDS011;6855;48.112;11.298;2022-08-19T06:00:06;18.23;;;11.00;;
13566;SDS011;6855;48.112;11.298;2022-08-19T06:02:35;15.70;;;12.27;;
13566;SDS011;6855;48.112;11.298;2022-08-19T06:05:03;15.60;;;12.47;;
13566;SDS011;6855;48.112;11.298;2022-08-19T06:07:31;19.47;;;13.40;;
13566;SDS011;6855;48.112;11.298;2022-08-19T06:09:58;17.40;;;14.07;;
13566;SDS011;6855;48.112;11.298;2022-08-19T06:12:26;16.90;;;13.00;;
13566;SDS011;6855;48.112;11.298;2022-08-19T06:14:58;16.27;;;12.77;;
13566;SDS011;6855;48.112;11.298;2022-08-19T06:17:25;17.37;;;13.33;;
13566;SDS011;6855;48.112;11.298;2022-08-19T06:19:52;17.10;;;13.43;;
13566;SDS011;6855;48.112;11.298;2022-08-19T06:22:19;17.10;;;14.10;;
13566;SDS011;6855;48.112;11.298;2022-08-19T06:24:47;18.03;;;14.00;;
13566;SDS011;6855;48.112;11.298;2022-08-19T06:27:17;17.73;;;13.43;;
13566;SDS011;6855;48.112;11.298;2022-08-19T06:29:45;18.37;;;14.20;;
13566;SDS011;6855;48.112;11.298;2022-08-19T06:32:14;16.73;;;11.93;;
13566;SDS011;6855;48.112;11.298;2022-08-19T06:34:43;18.50;;;14.50;;
13566;SDS011;6855;48.112;11.298;2022-08-19T06:37:10;19.30;;;14.83;;
13566;SDS011;6855;48.112;11.298;2022-08-19T06:39:38;18.43;;;14.40;;
13566;SDS011;6855;48.112;11.298;2022-08-19T06:42:06;19.10;;;15.07;;
13566;SDS011;6855;48.112;11.298;2022-08-19T06:44:36;19.23;;;15.03;;
13566;SDS011;6855;48.112;11.298;2022-08-19T06:47:05;19.37;;;14.70;;
13566;SDS011;6855;48.112;11.298;2022-08-19T06:49:34;21.00;;;15.17;;
13566;SDS011;6855;48.112;11.298;2022-08-19T06:52:02;20.27;;;14.60;;
13566;SDS011;6855;48.112;11.298;2022-08-19T06:54:30;21.57;;;14.30;;
13566;SDS011;6855;48.112;11.298;2022-08-19T06:56:58;19.70;;;15.03;;
13566;SDS011;6855;48.112;11.298;2022-08-19T06:59:27;24.27;;;18.17;;
13566;SDS011;6855;48.112;11.298;2022-08-19T07:01:58;23.33;;;17.00;;
13566;SDS011;6855;48.112;11.298;2022-08-19T07:04:26;25.37;;;18.60;;
13566;SDS011;6855;48.112;11.298;2022-08-19T07:06:58;24.90;;;16.87;;
13566;SDS011;6855;48.112;11.298;2022-08-19T07:09:26;22.20;;;17.73;;
13566;SDS011;6855;48.112;11.298;2022-08-19T07:11:53;24.37;;;17.67;;
13566;SDS011;6855;48.112;11.298;2022-08-19T07:14:22;23.20;;;17.30;;
13566;SDS011;6855;48.112;11.298;2022-08-19T07:16:50;27.50;;;18.80;;
13566;SDS011;6855;48.112;11.298;2022-08-19T07:19:19;26.50;;;18.63;;
13566;SDS011;6855;48.112;11.298;2022-08-19T07:21:47;23.97;;;17.87;;
13566;SDS011;6855;48.112;11.298;2022-08-19T07:24:16;26.33;;;19.10;;
13566;SDS011;6855;48.112;11.298;2022-08-19T07:26:44;24.70;;;17.20;;
13566;SDS011;6855;48.112;11.298;2022-08-19T07:29:11;28.80;;;18.03;;
13566;SDS011;6855;48.112;11.298;2022-08-19T07:31:39;24.93;;;17.33;;
13566;SDS011;6855;48.112;11.298;2022-08-19T07:34:07;27.60;;;18.90;;
13566;SDS011;6855;48.112;11.298;2022-08-19T07:36:36;27.13;;;20.10;;
13566;SDS011;6855;48.112;11.298;2022-08-19T07:39:05;27.00;;;19.63;;
13566;SDS011;6855;48.112;11.298;2022-08-19T07:41:34;28.00;;;18.73;;
13566;SDS011;6855;48.112;11.298;2022-08-19T07:44:02;28.10;;;20.90;;
13566;SDS011;6855;48.112;11.298;2022-08-19T07:46:32;28.60;;;19.90;;
13566;SDS011;6855;48.112;11.298;2022-08-19T07:49:00;29.47;;;18.60;;
13566;SDS011;6855;48.112;11.298;2022-08-19T07:51:27;27.30;;;18.77;;
13566;SDS011;6855;48.112;11.298;2022-08-19T07:53:55;30.00;;;19.20;;
13566;SDS011;6855;48.112;11.298;2022-08-19T07:56:22;24.40;;;17.17;;
13566;SDS011;6855;48.112;11.298;2022-08-19T07:58:51;24.83;;;17.33;;
13566;SDS011;6855;48.112;11.298;2022-08-19T08:01:20;25.97;;;17.87;;
13566;SDS011;6855;48.112;11.298;2022-08-19T08:03:48;22.90;;;17.53;;
13566;SDS011;6855;48.112;11.298;2022-08-19T08:06:33;19.83;;;16.37;;
13566;SDS011;6855;48.112;11.298;2022-08-19T08:09:19;24.03;;;17.70;;
13566;SDS011;6855;48.112;11.298;2022-08-19T08:11:48;22.27;;;16.53;;
13566;SDS011;6855;48.112;11.298;2022-08-19T08:14:18;23.33;;;17.40;;
13566;SDS011;6855;48.112;11.298;2022-08-19T08:16:47;25.80;;;19.07;;
13566;SDS011;6855;48.112;11.298;2022-08-19T08:19:15;23.50;;;17.73;;
13566;SDS011;6855;48.112;11.298;2022-08-19T08:21:42;26.93;;;20.17;;
13566;SDS011;6855;48.112;11.298;2022-08-19T08:24:10;25.67;;;18.53;;
13566;SDS011;6855;48.112;11.298;2022-08-19T08:26:37;28.43;;;20.40;;
13566;SDS011;6855;48.112;11.298;2022-08-19T08:29:09;28.50;;;19.60;;
13566;SDS011;6855;48.112;11.298;2022-08-19T08:31:39;29.37;;;19.10;;
13566;SDS011;6855;48.112;11.298;2022-08-19T08:34:07;26.73;;;19.40;;
13566;SDS011;6855;48.112;11.298;2022-08-19T08:36:42;27.93;;;20.50;;
13566;SDS011;6855;48.112;11.298;2022-08-19T08:39:10;28.83;;;20.17;;
13566;SDS011;6855;48.112;11.298;2022-08-19T08:41:41;26.00;;;19.20;;
13566;SDS011;6855;48.112;11.298;2022-08-19T08:44:11;31.53;;;20.90;;
13566;SDS011;6855;48.112;11.298;2022-08-19T08:46:43;27.90;;;19.97;;
13566;SDS011;6855;48.112;11.298;2022-08-19T08:49:17;30.40;;;20.10;;
13566;SDS011;6855;48.112;11.298;2022-08-19T08:51:47;30.30;;;20.57;;
13566;SDS011;6855;48.112;11.298;2022-08-19T08:54:20;31.97;;;21.20;;
13566;SDS011;6855;48.112;11.298;2022-08-19T08:56:47;29.00;;;21.07;;
13566;SDS011;6855;48.112;11.298;2022-08-19T08:59:16;38.63;;;22.97;;
13566;SDS011;6855;48.112;11.298;2022-08-19T09:01:47;35.00;;;20.13;;
13566;SDS011;6855;48.112;11.298;2022-08-19T09:04:14;41.00;;;23.10;;
13566;SDS011;6855;48.112;11.298;2022-08-19T09:06:44;37.43;;;22.00;;
13566;SDS011;6855;48.112;11.298;2022-08-19T09:09:17;34.30;;;21.20;;
13566;SDS011;6855;48.112;11.298;2022-08-19T09:11:50;32.77;;;20.87;;
13566;SDS011;6855;48.112;11.298;2022-08-19T09:14:23;34.27;;;22.87;;
13566;SDS011;6855;48.112;11.298;2022-08-19T09:16:56;33.77;;;21.70;;
13566;SDS011;6855;48.112;11.298;2022-08-19T09:19:24;35.37;;;22.13;;
13566;SDS011;6855;48.112;11.298;2022-08-19T09:21:51;35.40;;;22.17;;
13566;SDS011;6855;48.112;11.298;2022-08-19T09:24:19;36.30;;;23.83;;
13566;SDS011;6855;48.112;11.298;2022-08-19T09:26:46;41.50;;;23.90;;
13566;SDS011;6855;48.112;11.298;2022-08-19T09:29:13;50.37;;;22.87;;
13566;SDS011;6855;48.112;11.298;2022-08-19T09:31:41;32.67;;;22.03;;
13566;SDS011;6855;48.112;11.298;2022-08-19T09:34:09;33.07;;;21.63;;
13566;SDS011;6855;48.112;11.298;2022-08-19T09:36:36;34.60;;;23.07;;
13566;SDS011;6855;48.112;11.298;2022-08-19T09:39:04;36.30;;;22.87;;
13566;SDS011;6855;48.112;11.298;2022-08-19T09:41:32;38.57;;;22.70;;
13566;SDS011;6855;48.112;11.298;2022-08-19T09:43:59;32.13;;;21.17;;
13566;SDS011;6855;48.112;11.298;2022-08-19T09:46:27;35.03;;;20.80;;
13566;SDS011;6855;48.112;11.298;2022-08-19T09:48:59;32.60;;;21.80;;
13566;SDS011;6855;48.112;11.298;2022-08-19T09:51:28;31.60;;;21.47;;
13566;SDS011;6855;48.112;11.298;2022-08-19T09:53:58;31.40;;;21.27;;
13566;SDS011;6855;48.112;11.298;2022-08-19T09:56:26;32.77;;;20.83;;
13566;SDS011;6855;48.112;11.298;2022-08-19T09:58:53;30.00;;;20.40;;
13566;SDS011;6855;48.112;11.298;2022-08-19T10:01:21;30.97;;;19.83;;
13566;SDS011;6855;48.112;11.298;2022-08-19T10:03:49;30.43;;;21.10;;
13566;SDS011;6855;48.112;11.298;2022-08-19T10:06:17;36.00;;;21.93;;
13566;SDS011;6855;48.112;11.298;2022-08-19T10:08:46;26.90;;;19.13;;
13566;SDS011;6855;48.112;11.298;2022-08-19T10:11:14;24.20;;;17.80;;
13566;SDS011;6855;48.112;11.298;2022-08-19T10:13:42;26.67;;;18.00;;
13566;SDS011;6855;48.112;11.298;2022-08-19T10:16:11;24.07;;;17.40;;
13566;SDS011;6855;48.112;11.298;2022-08-19T10:18:39;24.13;;;17.43;;
13566;SDS011;6855;48.112;11.298;2022-08-19T10:21:10;20.80;;;16.03;;
13566;SDS011;6855;48.112;11.298;2022-08-19T10:23:37;23.10;;;16.20;;
13566;SDS011;6855;48.112;11.298;2022-08-19T10:26:07;20.50;;;16.17;;
13566;SDS011;6855;48.112;11.298;2022-08-19T10:28:34;21.87;;;15.57;;
13566;SDS011;6855;48.112;11.298;2022-08-19T10:31:05;18.17;;;14.67;;
13566;SDS011;6855;48.112;11.298;2022-08-19T10:33:33;17.00;;;13.10;;
13566;SDS011;6855;48.112;11.298;2022-08-19T10:36:00;16.97;;;13.10;;
13566;SDS011;6855;48.112;11.298;2022-08-19T10:38:28;17.93;;;14.00;;
13566;SDS011;6855;48.112;11.298;2022-08-19T10:40:56;17.70;;;12.43;;
13566;SDS011;6855;48.112;11.298;2022-08-19T10:43:25;15.50;;;11.27;;
13566;SDS011;6855;48.112;11.298;2022-08-19T10:45:58;15.67;;;11.67;;
13566;SDS011;6855;48.112;11.298;2022-08-19T10:48:28;15.40;;;10.60;;
13566;SDS011;6855;48.112;11.298;2022-08-19T10:50:56;13.27;;;11.03;;
13566;SDS011;6855;48.112;11.298;2022-08-19T10:53:41;16.33;;;10.87;;
13566;SDS011;6855;48.112;11.298;2022-08-19T10:56:08;12.90;;;10.87;;
13566;SDS011;6855;48.112;11.298;2022-08-19T10:58:55;13.10;;;9.87;;
13566;SDS011;6855;48.112;11.298;2022-08-19T11:01:23;11.33;;;8.57;;
13566;SDS011;6855;48.112;11.298;2022-08-19T11:03:50;8.17;;;6.77;;
13566;SDS011;6855;48.112;11.298;2022-08-19T11:06:19;8.70;;;7.30;;
13566;SDS011;6855;48.112;11.298;2022-08-19T11:08:46;9.47;;;6.70;;
13566;SDS011;6855;48.112;11.298;2022-08-19T11:11:13;9.93;;;7.10;;
13566;SDS011;6855;48.112;11.298;2022-08-19T11:13:41;8.93;;;6.77;;
13566;SDS011;6855;48.112;11.298;2022-08-19T11:16:12;8.90;;;7.03;;
13566;SDS011;6855;48.112;11.298;2022-08-19T11:18:40;9.03;;;7.47;;
13566;SDS011;6855;48.112;11.298;2022-08-19T11:21:09;7.47;;;6.30;;
13566;SDS011;6855;48.112;11.298;2022-08-19T11:23:37;5.43;;;4.90;;
13566;SDS011;6855;48.112;11.298;2022-08-19T11:26:04;4.50;;;4.10;;
13566;SDS011;6855;48.112;11.298;2022-08-19T11:28:32;4.60;;;3.67;;
13566;SDS011;6855;48.112;11.298;2022-08-19T11:30:59;3.10;;;2.80;;
13566;SDS011;6855;48.112;11.298;2022-08-19T11:33:29;3.33;;;2.73;;
13566;SDS011;6855;48.112;11.298;2022-08-19T11:35:57;2.73;;;2.50;;
13566;SDS011;6855;48.112;11.298;2022-08-19T11:38:26;1.93;;;1.83;;
13566;SDS011;6855;48.112;11.298;2022-08-19T11:40:54;1.77;;;1.67;;
13566;SDS011;6855;48.112;11.298;2022-08-19T11:43:21;2.33;;;2.10;;
13566;SDS011;6855;48.112;11.298;2022-08-19T11:45:49;1.97;;;1.80;;
13566;SDS011;6855;48.112;11.298;2022-08-19T11:48:16;3.00;;;2.20;;
13566;SDS011;6855;48.112;11.298;2022-08-19T11:50:48;1.90;;;1.80;;
13566;SDS011;6855;48.112;11.298;2022-08-19T11:53:16;2.27;;;2.07;;
13566;SDS011;6855;48.112;11.298;2022-08-19T11:55:43;1.67;;;1.50;;
13566;SDS011;6855;48.112;11.298;2022-08-19T11:58:10;1.40;;;1.30;;
13566;SDS011;6855;48.112;11.298;2022-08-19T12:00:38;1.20;;;1.10;;
13566;SDS011;6855;48.112;11.298;2022-08-19T12:03:05;1.40;;;1.30;;
13566;SDS011;6855;48.112;11.298;2022-08-19T12:05:33;1.80;;;1.50;;
13566;SDS011;6855;48.112;11.298;2022-08-19T12:08:02;1.30;;;1.20;;
13566;SDS011;6855;48.112;11.298;2022-08-19T12:10:29;1.33;;;1.23;;
13566;SDS011;6855;48.112;11.298;2022-08-19T12:12:57;2.33;;;1.37;;
13566;SDS011;6855;48.112;11.298;2022-08-19T12:15:25;1.70;;;1.60;;
13566;SDS011;6855;48.112;11.298;2022-08-19T12:17:54;1.23;;;1.10;;
13566;SDS011;6855;48.112;11.298;2022-08-19T12:20:21;1.20;;;1.10;;
13566;SDS011;6855;48.112;11.298;2022-08-19T12:22:49;3.37;;;1.40;;
13566;SDS011;6855;48.112;11.298;2022-08-19T12:25:17;1.37;;;1.27;;
13566;SDS011;6855;48.112;11.298;2022-08-19T12:27:48;1.30;;;1.20;;
13566;SDS011;6855;48.112;11.298;2022-08-19T12:30:16;1.53;;;1.30;;
13566;SDS011;6855;48.112;11.298;2022-08-19T12:32:43;1.77;;;1.47;;
13566;SDS011;6855;48.112;11.298;2022-08-19T12:35:12;2.00;;;1.80;;
13566;SDS011;6855;48.112;11.298;2022-08-19T12:37:46;1.40;;;1.30;;
13566;SDS011;6855;48.112;11.298;2022-08-19T12:40:14;1.93;;;1.50;;
13566;SDS011;6855;48.112;11.298;2022-08-19T12:42:43;1.67;;;1.57;;
13566;SDS011;6855;48.112;11.298;2022-08-19T12:45:11;2.03;;;1.40;;
13566;SDS011;6855;48.112;11.298;2022-08-19T12:47:38;1.47;;;1.37;;
13566;SDS011;6855;48.112;11.298;2022-08-19T12:50:06;1.60;;;1.50;;
13566;SDS011;6855;48.112;11.298;2022-08-19T12:52:34;1.70;;;1.60;;
13566;SDS011;6855;48.112;11.298;2022-08-19T12:55:03;1.40;;;1.30;;
13566;SDS011;6855;48.112;11.298;2022-08-19T12:57:31;1.50;;;1.40;;
13566;SDS011;6855;48.112;11.298;2022-08-19T13:00:03;1.43;;;1.33;;
13566;SDS011;6855;48.112;11.298;2022-08-19T13:02:32;1.47;;;1.37;;
13566;SDS011;6855;48.112;11.298;2022-08-19T13:05:00;1.60;;;1.50;;
13566;SDS011;6855;48.112;11.298;2022-08-19T13:07:27;1.53;;;1.43;;
13566;SDS011;6855;48.112;11.298;2022-08-19T13:09:55;2.07;;;1.90;;
13566;SDS011;6855;48.112;11.298;2022-08-19T13:12:22;2.20;;;2.00;;
13566;SDS011;6855;48.112;11.298;2022-08-19T13:14:51;3.40;;;2.40;;
13566;SDS011;6855;48.112;11.298;2022-08-19T13:17:20;2.53;;;1.93;;
13566;SDS011;6855;48.112;11.298;2022-08-19T13:19:48;2.67;;;2.20;;
13566;SDS011;6855;48.112;11.298;2022-08-19T13:22:15;2.37;;;2.03;;
13566;SDS011;6855;48.112;11.298;2022-08-19T13:24:43;2.40;;;2.20;;
13566;SDS011;6855;48.112;11.298;2022-08-19T13:27:10;2.20;;;2.00;;
13566;SDS011;6855;48.112;11.298;2022-08-19T13:29:39;2.40;;;2.20;;
13566;SDS011;6855;48.112;11.298;2022-08-19T13:32:25;2.60;;;2.40;;
13566;SDS011;6855;48.112;11.298;2022-08-19T13:35:09;2.47;;;2.27;;
13566;SDS011;6855;48.112;11.298;2022-08-19T13:37:37;2.73;;;2.53;;
13566;SDS011;6855;48.112;11.298;2022-08-19T13:40:08;2.20;;;2.00;;
13566;SDS011;6855;48.112;11.298;2022-08-19T13:42:38;2.17;;;2.00;;
13566;SDS011;6855;48.112;11.298;2022-08-19T13:45:05;2.47;;;2.27;;
13566;SDS011;6855;48.112;11.298;2022-08-19T13:47:34;2.10;;;1.90;;
13566;SDS011;6855;48.112;11.298;2022-08-19T13:50:08;1.93;;;1.83;;
13566;SDS011;6855;48.112;11.298;2022-08-19T13:52:36;2.10;;;1.90;;
13566;SDS011;6855;48.112;11.298;2022-08-19T13:55:04;5.43;;;2.27;;
13566;SDS011;6855;48.112;11.298;2022-08-19T13:57:31;2.20;;;1.67;;
13566;SDS011;6855;48.112;11.298;2022-08-19T13:59:59;1.73;;;1.60;;
13566;SDS011;6855;48.112;11.298;2022-08-19T14:02:26;1.90;;;1.80;;
13566;SDS011;6855;48.112;11.298;2022-08-19T14:04:54;1.60;;;1.50;;
13566;SDS011;6855;48.112;11.298;2022-08-19T14:07:22;1.90;;;1.80;;
13566;SDS011;6855;48.112;11.298;2022-08-19T14:09:49;4.40;;;1.50;;
13566;SDS011;6855;48.112;11.298;2022-08-19T14:12:18;1.47;;;1.37;;
13566;SDS011;6855;48.112;11.298;2022-08-19T14:14:45;2.17;;;1.40;;
13566;SDS011;6855;48.112;11.298;2022-08-19T14:17:13;1.83;;;1.73;;
13566;SDS011;6855;48.112;11.298;2022-08-19T14:19:40;1.60;;;1.50;;
13566;SDS011;6855;48.112;11.298;2022-08-19T14:22:09;1.77;;;1.67;;
13566;SDS011;6855;48.112;11.298;2022-08-19T14:24:36;1.90;;;1.70;;
13566;SDS011;6855;48.112;11.298;2022-08-19T14:27:05;3.83;;;1.80;;
13566;SDS011;6855;48.112;11.298;2022-08-19T14:29:32;1.33;;;1.23;;
13566;SDS011;6855;48.112;11.298;2022-08-19T14:31:59;1.93;;;1.27;;
13566;SDS011;6855;48.112;11.298;2022-08-19T14:34:26;1.90;;;1.70;;
13566;SDS011;6855;48.112;11.298;2022-08-19T14:36:54;1.80;;;1.70;;
13566;SDS011;6855;48.112;11.298;2022-08-19T14:39:22;2.07;;;1.80;;
13566;SDS011;6855;48.112;11.298;2022-08-19T14:41:49;2.13;;;1.87;;
13566;SDS011;6855;48.112;11.298;2022-08-19T14:44:16;2.03;;;1.80;;